Time;durP1;ratioP1;P1;durP2;ratioP2;P2;SDS_P1;SDS_P2;PMS_P1;PMS_P2;Temp;Humidity;BMP_temperature;BMP_pressure;BME280_temperature;BME280_humidity;BME280_pressure;Samples;Min_cycle;Max_cycle;Signal;HPM_P1;HPM_P2
2022/06/18 00:00:21;;;;;;;7.05;3.20;;;;;;;;;;3366446;42;20097;-58
2022/06/18 00:02:47;;;;;;;7.13;3.20;;;;;;;;;;3366583;42;20634;-58
2022/06/18 00:05:15;;;;;;;8.05;3.03;;;;;;;;;;3366729;42;20148;-57
2022/06/18 00:07:47;;;;;;;6.33;3.00;;;;;;;;;;3366126;42;20090;-57
2022/06/18 00:10:18;;;;;;;6.65;2.97;;;;;;;;;;3366653;42;20094;-58
2022/06/18 00:15:31;;;;;;;6.57;3.20;;;;;;;;;;3366457;42;20100;-58
2022/06/18 00:17:57;;;;;;;6.20;2.90;;;;;;;;;;3366398;42;20094;-57
2022/06/18 00:20:24;;;;;;;7.40;3.00;;;;;;;;;;3366357;42;20525;-58
2022/06/18 00:22:51;;;;;;;6.93;3.05;;;;;;;;;;3366190;42;20147;-58
2022/06/18 00:25:28;;;;;;;8.27;3.05;;;;;;;;;;3365102;42;20107;-58
2022/06/18 00:27:54;;;;;;;7.80;3.28;;;;;;;;;;3364888;42;20529;-58
2022/06/18 00:30:22;;;;;;;7.13;3.08;;;;;;;;;;3361553;42;20092;-58
2022/06/18 00:32:48;;;;;;;10.57;3.47;;;;;;;;;;3364374;42;20092;-58
2022/06/18 00:35:15;;;;;;;6.68;3.13;;;;;;;;;;3366117;42;20096;-57
2022/06/18 00:37:42;;;;;;;9.80;2.95;;;;;;;;;;3366083;42;20102;-58
2022/06/18 00:40:19;;;;;;;9.65;3.42;;;;;;;;;;3364894;42;20189;-57
2022/06/18 00:42:45;;;;;;;7.90;2.90;;;;;;;;;;3364804;42;20111;-58
2022/06/18 00:45:17;;;;;;;8.90;2.90;;;;;;;;;;3365110;42;20092;-58
2022/06/18 00:47:47;;;;;;;6.30;2.85;;;;;;;;;;3364951;42;20092;-57
2022/06/18 00:50:28;;;;;;;7.50;3.13;;;;;;;;;;3366071;42;20143;-57
2022/06/18 00:52:57;;;;;;;8.15;3.40;;;;;;;;;;3364767;42;20096;-56
2022/06/18 00:55:29;;;;;;;7.00;3.28;;;;;;;;;;3364940;42;20087;-57
2022/06/18 00:58:00;;;;;;;7.30;3.43;;;;;;;;;;3365120;42;20083;-57
2022/06/18 01:00:33;;;;;;;9.85;3.63;;;;;;;;;;3366088;42;20087;-58
2022/06/18 01:02:59;;;;;;;8.05;3.28;;;;;;;;;;3364655;42;20161;-57
2022/06/18 01:05:27;;;;;;;14.70;3.35;;;;;;;;;;3366555;42;20088;-57
2022/06/18 01:07:58;;;;;;;12.02;3.17;;;;;;;;;;3366965;42;20551;-56
2022/06/18 01:10:34;;;;;;;6.83;3.00;;;;;;;;;;3367869;42;20134;-56
2022/06/18 01:13:02;;;;;;;7.57;3.35;;;;;;;;;;3366632;42;20091;-56
2022/06/18 01:15:29;;;;;;;9.68;3.60;;;;;;;;;;3368198;42;20092;-56
2022/06/18 01:17:55;;;;;;;11.30;3.53;;;;;;;;;;3368415;42;20626;-56
2022/06/18 01:20:22;;;;;;;9.30;3.30;;;;;;;;;;3361764;42;20142;-57
2022/06/18 01:23:03;;;;;;;9.43;3.17;;;;;;;;;;3369573;42;20136;-57
2022/06/18 01:25:29;;;;;;;8.13;3.50;;;;;;;;;;3371712;42;20139;-55
2022/06/18 01:27:55;;;;;;;6.30;2.90;;;;;;;;;;3371523;42;20661;-55
2022/06/18 01:30:22;;;;;;;5.90;2.63;;;;;;;;;;3373714;42;20139;-62
2022/06/18 01:32:50;;;;;;;7.45;2.65;;;;;;;;;;3372779;42;20096;-56
2022/06/18 01:35:17;;;;;;;7.80;2.73;;;;;;;;;;3371987;42;20084;-55
2022/06/18 01:37:43;;;;;;;6.93;2.60;;;;;;;;;;3370502;42;20104;-55
2022/06/18 01:40:10;;;;;;;5.70;2.30;;;;;;;;;;3372227;42;20572;-57
2022/06/18 01:42:38;;;;;;;6.75;2.90;;;;;;;;;;3362728;42;20102;-57
2022/06/18 01:45:18;;;;;;;6.93;2.80;;;;;;;;;;3369829;42;20151;-57
2022/06/18 01:47:51;;;;;;;5.53;2.40;;;;;;;;;;3369646;42;20099;-56
2022/06/18 01:50:24;;;;;;;6.05;2.42;;;;;;;;;;3371767;42;20606;-58
2022/06/18 01:52:59;;;;;;;7.25;2.42;;;;;;;;;;3371475;42;20096;-57
2022/06/18 01:55:29;;;;;;;6.30;2.60;;;;;;;;;;3368911;42;20088;-56
2022/06/18 01:57:57;;;;;;;5.65;2.50;;;;;;;;;;3365041;42;20150;-57
2022/06/18 02:00:25;;;;;;;7.80;2.40;;;;;;;;;;3364824;42;20518;-54
2022/06/18 02:02:51;;;;;;;9.43;2.80;;;;;;;;;;3366367;42;20092;-56
2022/06/18 02:05:17;;;;;;;7.03;2.47;;;;;;;;;;3365106;42;20143;-56
2022/06/18 02:07:43;;;;;;;6.57;2.40;;;;;;;;;;3369243;42;20107;-56
2022/06/18 02:10:16;;;;;;;5.83;2.60;;;;;;;;;;3368414;42;20493;-57
2022/06/18 02:12:42;;;;;;;5.45;2.20;;;;;;;;;;3368913;42;20119;-56
2022/06/18 02:15:14;;;;;;;6.95;2.40;;;;;;;;;;3371678;42;20489;-56
2022/06/18 02:17:40;;;;;;;6.88;2.10;;;;;;;;;;3370865;42;20087;-55
2022/06/18 02:20:11;;;;;;;7.65;2.60;;;;;;;;;;3371110;42;20177;-57
2022/06/18 02:22:57;;;;;;;6.13;2.40;;;;;;;;;;3364486;42;20483;-52
2022/06/18 02:25:24;;;;;;;6.50;2.40;;;;;;;;;;3374015;42;20138;-55
2022/06/18 02:27:54;;;;;;;7.13;2.50;;;;;;;;;;3374834;42;20099;-55
2022/06/18 02:30:23;;;;;;;7.00;2.30;;;;;;;;;;3374809;42;20088;-56
2022/06/18 02:32:59;;;;;;;7.78;2.45;;;;;;;;;;3372403;42;20092;-57
2022/06/18 02:35:27;;;;;;;6.27;2.20;;;;;;;;;;3370031;42;20139;-56
2022/06/18 02:37:54;;;;;;;6.95;2.20;;;;;;;;;;3376471;42;20146;-56
2022/06/18 02:40:22;;;;;;;7.13;2.50;;;;;;;;;;3375585;42;20621;-57
2022/06/18 02:42:49;;;;;;;9.82;2.50;;;;;;;;;;3377249;42;20094;-57
2022/06/18 02:45:15;;;;;;;6.10;2.35;;;;;;;;;;3377669;42;20143;-57
2022/06/18 02:47:41;;;;;;;8.23;2.87;;;;;;;;;;3377371;42;20119;-52
2022/06/18 02:50:09;;;;;;;7.20;2.25;;;;;;;;;;3377075;42;20130;-57
2022/06/18 02:52:40;;;;;;;5.72;2.40;;;;;;;;;;3378367;42;20100;-56
2022/06/18 02:55:31;;;;;;;5.82;2.40;;;;;;;;;;3377596;42;20083;-55
2022/06/18 02:58:20;;;;;;;7.35;2.40;;;;;;;;;;3379617;42;20092;-58
2022/06/18 03:00:57;;;;;;;7.40;2.47;;;;;;;;;;3376941;42;20098;-55
2022/06/18 03:03:26;;;;;;;7.68;2.30;;;;;;;;;;3379069;42;20092;-56
2022/06/18 03:05:52;;;;;;;7.55;2.20;;;;;;;;;;3376849;42;20150;-55
2022/06/18 03:08:20;;;;;;;6.43;2.40;;;;;;;;;;3378150;42;20098;-56
2022/06/18 03:13:31;;;;;;;5.70;2.27;;;;;;;;;;3380529;42;20136;-53
2022/06/18 03:15:57;;;;;;;8.15;2.50;;;;;;;;;;3380312;42;20087;-54
2022/06/18 03:18:26;;;;;;;7.60;2.45;;;;;;;;;;3380530;42;20191;-56
2022/06/18 03:20:57;;;;;;;6.50;2.30;;;;;;;;;;3378721;42;20102;-55
2022/06/18 03:23:25;;;;;;;7.85;2.50;;;;;;;;;;3378441;42;20087;-56
2022/06/18 03:25:52;;;;;;;8.03;2.40;;;;;;;;;;3379477;42;20092;-55
2022/06/18 03:28:18;;;;;;;5.40;2.33;;;;;;;;;;3379451;42;20143;-57
2022/06/18 03:30:44;;;;;;;9.82;2.30;;;;;;;;;;3379617;42;20162;-53
2022/06/18 03:33:10;;;;;;;6.90;2.13;;;;;;;;;;3373137;42;20100;-57
2022/06/18 03:35:37;;;;;;;5.50;2.20;;;;;;;;;;3366973;42;20096;-57
2022/06/18 03:38:03;;;;;;;6.38;2.53;;;;;;;;;;3367595;42;20533;-64
2022/06/18 03:40:30;;;;;;;6.93;2.58;;;;;;;;;;3368809;42;20693;-56
2022/06/18 03:42:55;;;;;;;5.97;2.13;;;;;;;;;;3368373;42;20083;-58
2022/06/18 03:45:21;;;;;;;5.40;2.10;;;;;;;;;;3369011;42;20125;-54
2022/06/18 03:47:47;;;;;;;8.50;2.30;;;;;;;;;;3369506;42;20662;-56
2022/06/18 03:50:15;;;;;;;7.45;2.40;;;;;;;;;;3369456;42;20098;-56
2022/06/18 03:52:41;;;;;;;6.15;2.40;;;;;;;;;;3368341;42;20143;-55
2022/06/18 03:55:08;;;;;;;6.30;2.27;;;;;;;;;;3369120;42;20092;-56
2022/06/18 03:57:34;;;;;;;6.05;2.17;;;;;;;;;;3368419;42;20189;-56
2022/06/18 04:00:00;;;;;;;5.32;2.00;;;;;;;;;;3368886;42;20102;-56
2022/06/18 04:02:26;;;;;;;5.55;2.10;;;;;;;;;;3365052;42;20110;-57
2022/06/18 04:04:52;;;;;;;5.20;2.10;;;;;;;;;;3369774;42;20557;-57
2022/06/18 04:07:19;;;;;;;6.05;1.88;;;;;;;;;;3369650;42;20160;-57
2022/06/18 04:09:46;;;;;;;6.10;2.10;;;;;;;;;;3368388;42;20162;-56
2022/06/18 04:12:12;;;;;;;7.88;2.00;;;;;;;;;;3370772;42;20139;-54
2022/06/18 04:14:37;;;;;;;6.10;1.98;;;;;;;;;;3370916;42;20115;-57
2022/06/18 04:17:03;;;;;;;10.60;1.80;;;;;;;;;;3372191;42;20091;-55
2022/06/18 04:19:30;;;;;;;6.22;1.95;;;;;;;;;;3369003;42;20079;-57
2022/06/18 04:21:55;;;;;;;6.03;1.80;;;;;;;;;;3369262;42;20526;-56
2022/06/18 04:24:21;;;;;;;5.63;1.90;;;;;;;;;;3369120;42;20574;-54
2022/06/18 04:26:47;;;;;;;4.90;1.80;;;;;;;;;;3368587;42;20095;-55
2022/06/18 04:29:13;;;;;;;7.13;2.05;;;;;;;;;;3368783;42;20541;-56
2022/06/18 04:31:39;;;;;;;7.10;2.15;;;;;;;;;;3368774;42;20103;-56
2022/06/18 04:34:05;;;;;;;6.27;2.10;;;;;;;;;;3368956;42;20091;-57
2022/06/18 04:36:34;;;;;;;6.32;2.10;;;;;;;;;;3368637;42;20621;-55
2022/06/18 04:39:00;;;;;;;5.40;2.05;;;;;;;;;;3367238;42;20175;-55
2022/06/18 04:41:27;;;;;;;5.72;2.17;;;;;;;;;;3369468;42;20180;-57
2022/06/18 04:43:53;;;;;;;6.10;2.00;;;;;;;;;;3369465;42;20552;-56
2022/06/18 04:46:19;;;;;;;6.80;1.90;;;;;;;;;;3369822;42;20693;-55
2022/06/18 04:48:45;;;;;;;8.57;2.60;;;;;;;;;;3370263;42;20123;-58
2022/06/18 04:51:11;;;;;;;6.57;2.00;;;;;;;;;;3365784;42;20094;-58
2022/06/18 04:53:37;;;;;;;5.03;1.92;;;;;;;;;;3368538;42;20099;-55
2022/06/18 04:56:03;;;;;;;6.40;2.10;;;;;;;;;;3373763;42;20095;-56
2022/06/18 04:58:29;;;;;;;7.00;2.20;;;;;;;;;;3372955;42;20147;-58
2022/06/18 05:00:55;;;;;;;7.97;2.00;;;;;;;;;;3372947;42;20114;-57
2022/06/18 05:03:21;;;;;;;5.53;2.17;;;;;;;;;;3372306;42;20115;-56
2022/06/18 05:05:47;;;;;;;5.47;1.93;;;;;;;;;;3370918;42;20107;-56
2022/06/18 05:08:13;;;;;;;6.05;2.00;;;;;;;;;;3372386;42;20106;-56
2022/06/18 05:10:39;;;;;;;6.60;1.90;;;;;;;;;;3370754;42;20091;-57
2022/06/18 05:13:06;;;;;;;11.93;2.25;;;;;;;;;;3371888;42;20155;-57
2022/06/18 05:15:32;;;;;;;6.60;2.28;;;;;;;;;;3369251;42;20096;-56
2022/06/18 05:17:58;;;;;;;4.53;2.00;;;;;;;;;;3360833;42;20140;-56
2022/06/18 05:20:24;;;;;;;5.82;1.80;;;;;;;;;;3371993;42;20079;-55
2022/06/18 05:22:51;;;;;;;5.18;1.73;;;;;;;;;;3371738;42;20576;-57
2022/06/18 05:25:17;;;;;;;5.50;2.08;;;;;;;;;;3372792;42;20142;-57
2022/06/18 05:27:43;;;;;;;4.73;1.90;;;;;;;;;;3368571;42;20161;-57
2022/06/18 05:30:12;;;;;;;7.10;1.95;;;;;;;;;;3372277;42;20176;-57
2022/06/18 05:32:38;;;;;;;5.32;1.98;;;;;;;;;;3373384;42;20135;-57
2022/06/18 05:35:05;;;;;;;10.90;1.98;;;;;;;;;;3369868;42;20091;-56
2022/06/18 05:37:31;;;;;;;5.65;1.70;;;;;;;;;;3368552;42;20303;-56
2022/06/18 05:39:57;;;;;;;6.50;1.93;;;;;;;;;;3369185;42;20134;-57
2022/06/18 05:42:23;;;;;;;6.20;1.80;;;;;;;;;;3369517;42;20095;-57
2022/06/18 05:44:49;;;;;;;5.93;2.00;;;;;;;;;;3369450;42;20080;-56
2022/06/18 05:47:23;;;;;;;6.88;1.90;;;;;;;;;;3369208;42;20090;-55
2022/06/18 05:49:50;;;;;;;6.72;1.80;;;;;;;;;;3366793;42;20562;-55
2022/06/18 05:52:17;;;;;;;8.00;1.95;;;;;;;;;;3371004;42;20076;-54
2022/06/18 05:54:43;;;;;;;6.90;1.80;;;;;;;;;;3371559;42;20247;-52
2022/06/18 05:57:09;;;;;;;6.00;2.00;;;;;;;;;;3370968;42;20104;-51
2022/06/18 05:59:35;;;;;;;5.90;1.90;;;;;;;;;;3370819;42;20501;-57
2022/06/18 06:02:02;;;;;;;8.40;2.00;;;;;;;;;;3369406;42;20192;-54
2022/06/18 06:04:28;;;;;;;5.90;1.80;;;;;;;;;;3371529;42;20541;-51
2022/06/18 06:06:54;;;;;;;6.28;1.90;;;;;;;;;;3371150;42;20157;-50
2022/06/18 06:12:09;;;;;;;6.13;2.23;;;;;;;;;;3366911;42;20181;-53
2022/06/18 06:14:36;;;;;;;5.60;1.73;;;;;;;;;;3371010;42;20091;-49
2022/06/18 06:17:03;;;;;;;5.70;1.80;;;;;;;;;;3370755;42;20114;-52
2022/06/18 06:19:29;;;;;;;5.03;1.83;;;;;;;;;;3370982;42;20143;-54
2022/06/18 06:21:55;;;;;;;6.10;1.80;;;;;;;;;;3370494;42;20538;-55
2022/06/18 06:24:21;;;;;;;4.70;1.87;;;;;;;;;;3370598;42;20083;-54
2022/06/18 06:26:47;;;;;;;5.50;1.83;;;;;;;;;;3368968;42;20090;-55
2022/06/18 06:29:13;;;;;;;6.95;1.60;;;;;;;;;;3369508;42;20094;-55
2022/06/18 06:31:39;;;;;;;5.30;1.70;;;;;;;;;;3369943;42;20080;-53
2022/06/18 06:34:04;;;;;;;7.00;1.80;;;;;;;;;;3371417;42;20166;-53
2022/06/18 06:36:30;;;;;;;5.95;1.60;;;;;;;;;;3370299;42;20088;-57
2022/06/18 06:38:56;;;;;;;5.40;1.67;;;;;;;;;;3368921;42;20105;-57
2022/06/18 06:41:24;;;;;;;4.17;1.57;;;;;;;;;;3370302;42;20118;-55
2022/06/18 06:43:50;;;;;;;6.35;1.50;;;;;;;;;;3368536;42;20135;-54
2022/06/18 06:46:16;;;;;;;5.43;1.48;;;;;;;;;;3370042;42;20652;-52
2022/06/18 06:48:42;;;;;;;5.07;1.65;;;;;;;;;;3369949;42;20147;-54
2022/06/18 06:51:22;;;;;;;4.53;1.50;;;;;;;;;;3369473;42;20092;-54
2022/06/18 06:53:48;;;;;;;5.30;1.52;;;;;;;;;;3368443;42;20147;-55
2022/06/18 06:59:00;;;;;;;6.65;1.80;;;;;;;;;;3370245;42;20152;-53
2022/06/18 07:01:26;;;;;;;6.17;2.03;;;;;;;;;;3370378;42;20139;-54
2022/06/18 07:03:52;;;;;;;5.50;1.60;;;;;;;;;;3371051;42;20104;-52
2022/06/18 07:06:18;;;;;;;5.32;1.70;;;;;;;;;;3371719;42;20087;-50
2022/06/18 07:08:44;;;;;;;4.63;1.70;;;;;;;;;;3371190;42;20084;-52
2022/06/18 07:11:11;;;;;;;5.68;1.85;;;;;;;;;;3371690;42;20083;-55
2022/06/18 07:13:37;;;;;;;7.13;2.80;;;;;;;;;;3370736;42;20109;-53
2022/06/18 07:16:04;;;;;;;5.75;1.98;;;;;;;;;;3370461;42;20135;-51
2022/06/18 07:18:31;;;;;;;8.40;5.40;;;;;;;;;;3371068;42;20092;-57
2022/06/18 07:21:01;;;;;;;5.93;2.05;;;;;;;;;;3369869;42;20673;-55
2022/06/18 07:23:27;;;;;;;5.43;1.90;;;;;;;;;;3369413;42;20099;-58
2022/06/18 07:25:53;;;;;;;9.80;1.70;;;;;;;;;;3369205;42;20731;-55
2022/06/18 07:28:20;;;;;;;6.82;1.65;;;;;;;;;;3370614;42;20707;-56
2022/06/18 07:30:48;;;;;;;7.78;1.73;;;;;;;;;;3368873;42;20609;-55
2022/06/18 07:33:16;;;;;;;7.28;1.67;;;;;;;;;;3366658;42;20095;-53
2022/06/18 07:35:42;;;;;;;5.03;1.60;;;;;;;;;;3366234;42;20092;-55
2022/06/18 07:38:08;;;;;;;5.70;1.60;;;;;;;;;;3367679;42;20131;-54
2022/06/18 07:40:41;;;;;;;6.38;1.80;;;;;;;;;;3367264;42;20087;-52
2022/06/18 07:43:08;;;;;;;8.13;1.70;;;;;;;;;;3368567;42;20155;-54
2022/06/18 07:45:34;;;;;;;6.43;1.70;;;;;;;;;;3369341;42;20131;-55
2022/06/18 07:48:00;;;;;;;4.87;1.70;;;;;;;;;;3360721;42;20139;-51
2022/06/18 07:50:26;;;;;;;8.93;3.50;;;;;;;;;;3364817;42;20087;-56
2022/06/18 07:52:52;;;;;;;6.43;2.17;;;;;;;;;;3367173;42;20106;-57
2022/06/18 07:55:20;;;;;;;4.90;2.05;;;;;;;;;;3366680;42;20076;-54
2022/06/18 07:57:46;;;;;;;6.73;2.37;;;;;;;;;;3363633;42;20585;-56
2022/06/18 08:00:16;;;;;;;5.20;2.20;;;;;;;;;;3366412;42;20088;-57
2022/06/18 08:02:42;;;;;;;6.03;1.90;;;;;;;;;;3365281;42;20096;-57
2022/06/18 08:05:08;;;;;;;5.43;1.95;;;;;;;;;;3365971;42;20088;-55
2022/06/18 08:07:34;;;;;;;5.05;1.90;;;;;;;;;;3361323;42;20135;-53
2022/06/18 08:10:01;;;;;;;6.30;1.90;;;;;;;;;;3365922;42;20542;-55
2022/06/18 08:12:27;;;;;;;5.35;1.75;;;;;;;;;;3366590;42;20087;-58
2022/06/18 08:14:53;;;;;;;7.13;1.70;;;;;;;;;;3364976;42;20166;-56
2022/06/18 08:17:19;;;;;;;5.75;1.90;;;;;;;;;;3366340;42;20091;-53
2022/06/18 08:19:44;;;;;;;7.03;1.90;;;;;;;;;;3365604;42;20143;-57
2022/06/18 08:22:10;;;;;;;5.07;1.45;;;;;;;;;;3365984;42;20143;-56
2022/06/18 08:24:36;;;;;;;6.13;1.80;;;;;;;;;;3366643;42;20098;-57
2022/06/18 08:27:02;;;;;;;4.63;1.70;;;;;;;;;;3366471;42;20210;-53
2022/06/18 08:29:30;;;;;;;6.25;1.70;;;;;;;;;;3366923;42;20083;-56
2022/06/18 08:31:56;;;;;;;4.47;1.70;;;;;;;;;;3365360;42;20593;-55
2022/06/18 08:34:23;;;;;;;4.97;1.60;;;;;;;;;;3366430;42;20557;-55
2022/06/18 08:36:49;;;;;;;5.10;1.50;;;;;;;;;;3366776;42;20091;-55
2022/06/18 08:39:15;;;;;;;6.87;2.00;;;;;;;;;;3366363;42;20092;-56
2022/06/18 08:41:52;;;;;;;5.28;1.90;;;;;;;;;;3366911;42;20247;-58
2022/06/18 08:44:22;;;;;;;5.55;1.60;;;;;;;;;;3366536;42;20649;-55
2022/06/18 08:46:57;;;;;;;4.68;1.80;;;;;;;;;;3366703;42;20135;-55
2022/06/18 08:50:14;;;;;;;7.93;1.70;;;;;;;;;;3365095;42;20501;-56
2022/06/18 08:52:53;;;;;;;6.07;2.00;;;;;;;;;;3356019;42;20766;-57
2022/06/18 08:56:07;;;;;;;5.05;1.60;;;;;;;;;;3367777;42;20160;-56
2022/06/18 08:58:45;;;;;;;6.15;1.60;;;;;;;;;;3361325;42;20112;-56
2022/06/18 09:01:27;;;;;;;5.93;1.63;;;;;;;;;;3366315;42;20166;-58
2022/06/18 09:04:00;;;;;;;5.78;1.65;;;;;;;;;;3365232;42;20157;-55
2022/06/18 09:06:44;;;;;;;5.47;1.50;;;;;;;;;;3366046;42;20099;-55
2022/06/18 09:09:10;;;;;;;4.97;1.60;;;;;;;;;;3366467;42;20147;-56
2022/06/18 09:11:54;;;;;;;4.15;1.45;;;;;;;;;;3366644;42;20191;-57
2022/06/18 09:14:35;;;;;;;5.28;1.80;;;;;;;;;;3366532;42;20154;-56
2022/06/18 09:17:22;;;;;;;4.50;1.60;;;;;;;;;;3367453;42;20075;-54
2022/06/18 09:19:56;;;;;;;4.60;1.80;;;;;;;;;;3364810;42;20178;-56
2022/06/18 09:22:21;;;;;;;5.05;1.90;;;;;;;;;;3364484;42;20100;-55
2022/06/18 09:24:49;;;;;;;7.72;1.80;;;;;;;;;;3366778;42;20185;-56
2022/06/18 09:27:26;;;;;;;7.28;1.70;;;;;;;;;;3368407;42;20122;-57
2022/06/18 09:30:02;;;;;;;6.00;1.70;;;;;;;;;;3366986;42;20090;-56
2022/06/18 09:32:34;;;;;;;5.35;1.67;;;;;;;;;;3366849;42;20139;-54
2022/06/18 09:35:04;;;;;;;4.50;1.70;;;;;;;;;;3365736;42;20114;-56
2022/06/18 09:37:41;;;;;;;5.38;1.70;;;;;;;;;;3365612;42;20562;-55
2022/06/18 09:40:12;;;;;;;5.25;1.90;;;;;;;;;;3366710;42;20095;-56
2022/06/18 09:42:41;;;;;;;5.20;1.87;;;;;;;;;;3359075;42;20580;-53
2022/06/18 09:45:24;;;;;;;5.07;1.90;;;;;;;;;;3368171;42;20102;-57
2022/06/18 09:47:52;;;;;;;8.30;1.90;;;;;;;;;;3367097;42;20096;-58
2022/06/18 09:50:38;;;;;;;5.18;1.70;;;;;;;;;;3366540;42;20144;-55
2022/06/18 09:53:13;;;;;;;6.00;2.00;;;;;;;;;;3366437;42;20162;-57
2022/06/18 09:55:43;;;;;;;5.30;1.53;;;;;;;;;;3366935;42;20100;-57
2022/06/18 09:58:14;;;;;;;5.55;2.08;;;;;;;;;;3366354;42;20610;-57
2022/06/18 10:00:40;;;;;;;5.85;1.90;;;;;;;;;;3366479;42;20139;-56
2022/06/18 10:06:52;;;;;;;4.88;2.08;;;;;;;;;;3366448;42;20182;-57
2022/06/18 10:08:45;;;;;;;7.50;1.90;;;;;;;;;;3362523;42;20099;-57
2022/06/18 10:11:11;;;;;;;8.32;1.90;;;;;;;;;;3366469;42;20080;-57
2022/06/18 10:13:46;;;;;;;6.00;1.65;;;;;;;;;;3366348;42;20573;-56
2022/06/18 10:16:25;;;;;;;4.70;1.90;;;;;;;;;;3367304;42;20162;-57
2022/06/18 10:19:10;;;;;;;5.38;1.80;;;;;;;;;;3372005;42;20121;-57
2022/06/18 10:21:45;;;;;;;5.40;1.80;;;;;;;;;;3370559;42;20099;-59
2022/06/18 10:24:18;;;;;;;6.82;1.90;;;;;;;;;;3367611;42;20102;-57
2022/06/18 10:27:16;;;;;;;5.28;1.80;;;;;;;;;;3366119;42;20091;-57
2022/06/18 10:29:57;;;;;;;5.30;1.60;;;;;;;;;;3352553;42;20134;-56
2022/06/18 10:32:28;;;;;;;6.30;2.03;;;;;;;;;;3366180;42;20143;-55
2022/06/18 10:35:12;;;;;;;7.18;1.90;;;;;;;;;;3367351;42;20652;-58
2022/06/18 10:37:56;;;;;;;4.70;1.90;;;;;;;;;;3367882;42;20170;-57
2022/06/18 10:40:37;;;;;;;8.35;2.00;;;;;;;;;;3369285;42;20096;-53
2022/06/18 10:43:17;;;;;;;4.83;1.97;;;;;;;;;;3366577;42;20175;-55
2022/06/18 10:45:53;;;;;;;5.00;1.80;;;;;;;;;;3367474;42;20243;-55
2022/06/18 10:48:26;;;;;;;5.30;1.80;;;;;;;;;;3366132;42;20094;-56
2022/06/18 10:50:54;;;;;;;4.55;1.63;;;;;;;;;;3367381;42;20142;-56
2022/06/18 10:53:23;;;;;;;4.90;1.85;;;;;;;;;;3370327;42;20151;-56
2022/06/18 10:55:59;;;;;;;5.17;1.80;;;;;;;;;;3366618;42;20088;-56
2022/06/18 10:58:25;;;;;;;5.60;1.80;;;;;;;;;;3368687;42;20091;-55
2022/06/18 11:01:11;;;;;;;5.97;1.98;;;;;;;;;;3369439;42;20095;-58
2022/06/18 11:03:37;;;;;;;7.32;2.05;;;;;;;;;;3368669;42;20146;-57
2022/06/18 11:06:08;;;;;;;6.37;2.00;;;;;;;;;;3366584;42;20095;-53
2022/06/18 11:08:35;;;;;;;6.78;1.80;;;;;;;;;;3366369;42;20146;-56
2022/06/18 11:11:09;;;;;;;6.47;2.10;;;;;;;;;;3366468;42;20103;-53
2022/06/18 11:13:37;;;;;;;7.05;1.95;;;;;;;;;;3359846;42;20127;-55
2022/06/18 11:16:03;;;;;;;7.43;2.05;;;;;;;;;;3363917;42;20130;-54
2022/06/18 11:18:29;;;;;;;7.80;1.90;;;;;;;;;;3367748;42;20666;-56
2022/06/18 11:21:03;;;;;;;5.78;1.92;;;;;;;;;;3366676;42;20534;-56
2022/06/18 11:23:29;;;;;;;4.57;1.80;;;;;;;;;;3367947;42;20589;-56
2022/06/18 11:38:26;;;;;;;4.47;1.80;;;;;;;;;;2997151;40;20371;-55
2022/06/18 11:40:53;;;;;;;4.60;2.00;;;;;;;;;;3365718;42;20082;-56
2022/06/18 11:43:41;;;;;;;5.35;2.10;;;;;;;;;;3370733;42;20164;-58
2022/06/18 11:46:11;;;;;;;5.93;1.92;;;;;;;;;;3354359;42;20155;-55
2022/06/18 11:49:17;;;;;;;4.37;1.73;;;;;;;;;;3353721;42;20152;-56
2022/06/18 11:51:51;;;;;;;6.63;1.90;;;;;;;;;;3350231;42;20120;-56
2022/06/18 11:54:25;;;;;;;6.60;2.03;;;;;;;;;;3346536;42;20140;-55
2022/06/18 11:57:23;;;;;;;6.30;1.85;;;;;;;;;;3356497;42;20107;-57
2022/06/18 12:00:17;;;;;;;6.70;1.90;;;;;;;;;;3353991;42;20115;-56
2022/06/18 12:02:53;;;;;;;5.60;1.93;;;;;;;;;;3349047;42;20511;-56
2022/06/18 12:05:42;;;;;;;8.48;2.70;;;;;;;;;;3342534;42;20097;-56
2022/06/18 12:08:08;;;;;;;4.82;2.00;;;;;;;;;;3349674;42;20100;-55
2022/06/18 12:10:57;;;;;;;5.05;1.98;;;;;;;;;;3353152;42;20565;-54
2022/06/18 12:13:28;;;;;;;4.80;2.20;;;;;;;;;;3348921;42;20130;-56
2022/06/18 12:16:26;;;;;;;5.00;2.13;;;;;;;;;;3347701;42;20100;-56
2022/06/18 12:19:19;;;;;;;6.05;2.05;;;;;;;;;;3351152;42;20092;-54
2022/06/18 12:21:51;;;;;;;6.15;2.20;;;;;;;;;;3346367;42;20081;-56
2022/06/18 12:24:37;;;;;;;6.40;2.10;;;;;;;;;;3352643;42;20148;-56
2022/06/18 12:27:15;;;;;;;6.88;2.10;;;;;;;;;;3345888;42;20146;-52
2022/06/18 12:29:48;;;;;;;5.10;2.10;;;;;;;;;;3353450;42;20097;-54
2022/06/18 12:32:28;;;;;;;8.35;2.00;;;;;;;;;;3348713;42;20104;-55
2022/06/18 12:35:02;;;;;;;5.55;2.42;;;;;;;;;;3349884;42;20160;-55
2022/06/18 12:38:00;;;;;;;5.82;2.20;;;;;;;;;;3354219;42;20089;-56
2022/06/18 12:41:02;;;;;;;5.38;2.03;;;;;;;;;;3336535;42;20325;-55
2022/06/18 12:43:46;;;;;;;5.63;2.03;;;;;;;;;;3343898;42;20107;-57
2022/06/18 12:46:50;;;;;;;6.43;2.00;;;;;;;;;;3350088;42;20641;-54
2022/06/18 12:49:17;;;;;;;8.25;2.50;;;;;;;;;;3327880;42;20596;-57
2022/06/18 12:51:57;;;;;;;6.88;2.10;;;;;;;;;;3321859;42;20153;-52
2022/06/18 12:54:25;;;;;;;6.20;2.20;;;;;;;;;;3337360;42;20174;-57
2022/06/18 12:57:06;;;;;;;5.60;2.20;;;;;;;;;;3346768;42;20416;-57
2022/06/18 12:59:46;;;;;;;5.72;2.13;;;;;;;;;;3334103;42;20092;-54
2022/06/18 13:02:40;;;;;;;6.55;2.30;;;;;;;;;;3358112;42;20108;-59
2022/06/18 13:05:24;;;;;;;6.15;2.55;;;;;;;;;;3350825;42;20089;-54
2022/06/18 13:08:11;;;;;;;6.18;2.70;;;;;;;;;;3347802;42;20104;-58
2022/06/18 13:10:47;;;;;;;5.20;2.23;;;;;;;;;;3336582;42;20671;-59
2022/06/18 13:13:19;;;;;;;5.45;2.15;;;;;;;;;;3345370;42;20724;-60
2022/06/18 13:15:48;;;;;;;5.95;2.40;;;;;;;;;;3341140;42;20545;-58
2022/06/18 13:18:35;;;;;;;5.20;2.10;;;;;;;;;;3337435;42;20092;-59
2022/06/18 13:21:03;;;;;;;6.35;2.28;;;;;;;;;;3352480;42;20694;-59
2022/06/18 13:29:29;;;;;;;4.75;1.92;;;;;;;;;;3338838;42;20179;-57
2022/06/18 13:32:10;;;;;;;8.68;2.58;;;;;;;;;;3347235;42;20100;-58
2022/06/18 13:34:48;;;;;;;5.97;2.10;;;;;;;;;;3347997;42;20563;-59
2022/06/18 13:37:59;;;;;;;6.27;2.13;;;;;;;;;;3345081;42;20504;-57
2022/06/18 13:40:39;;;;;;;5.72;2.10;;;;;;;;;;3343067;42;20101;-57
2022/06/18 13:43:28;;;;;;;5.95;2.10;;;;;;;;;;3346811;42;20162;-59
2022/06/18 13:45:57;;;;;;;6.70;2.80;;;;;;;;;;3344785;42;20158;-57
2022/06/18 13:48:26;;;;;;;8.45;3.47;;;;;;;;;;3343173;42;20467;-58
2022/06/18 13:50:53;;;;;;;6.50;3.07;;;;;;;;;;3341725;42;20092;-59
2022/06/18 13:53:31;;;;;;;5.93;2.50;;;;;;;;;;3345414;42;20104;-57
2022/06/18 13:55:57;;;;;;;6.60;2.10;;;;;;;;;;3345236;42;20102;-59
2022/06/18 13:58:34;;;;;;;6.22;2.30;;;;;;;;;;3333193;42;20136;-59
2022/06/18 14:01:11;;;;;;;5.00;2.42;;;;;;;;;;3343343;42;20088;-59
2022/06/18 14:03:55;;;;;;;6.23;2.30;;;;;;;;;;3343767;42;20176;-59
2022/06/18 14:06:21;;;;;;;9.60;3.35;;;;;;;;;;3337373;42;20096;-59
2022/06/18 14:08:59;;;;;;;7.43;3.40;;;;;;;;;;3346944;42;20802;-59
2022/06/18 14:11:40;;;;;;;6.13;2.58;;;;;;;;;;3344663;42;20124;-60
2022/06/18 14:14:09;;;;;;;6.40;2.28;;;;;;;;;;3346574;42;20605;-58
2022/06/18 14:16:55;;;;;;;9.30;3.27;;;;;;;;;;3346149;42;20140;-59
2022/06/18 14:19:21;;;;;;;6.63;2.70;;;;;;;;;;3340419;42;20563;-58
2022/06/18 14:21:48;;;;;;;5.65;2.35;;;;;;;;;;3342332;42;20699;-57
2022/06/18 14:24:15;;;;;;;5.63;2.17;;;;;;;;;;3342610;42;20129;-60
2022/06/18 14:26:49;;;;;;;7.55;2.47;;;;;;;;;;3345626;42;20107;-58
2022/06/18 14:29:16;;;;;;;5.23;2.20;;;;;;;;;;3343333;42;20093;-58
2022/06/18 14:31:58;;;;;;;6.55;2.20;;;;;;;;;;3348775;42;20156;-58
2022/06/18 14:34:27;;;;;;;5.93;1.95;;;;;;;;;;3343548;42;20089;-56
2022/06/18 14:36:53;;;;;;;5.00;2.17;;;;;;;;;;3344908;42;20088;-58
2022/06/18 14:39:28;;;;;;;7.93;2.30;;;;;;;;;;3344448;42;20473;-58
2022/06/18 14:42:23;;;;;;;5.05;2.00;;;;;;;;;;3340412;42;20093;-56
2022/06/18 14:45:15;;;;;;;5.80;2.22;;;;;;;;;;3341341;42;20122;-57
2022/06/18 14:48:00;;;;;;;6.75;2.22;;;;;;;;;;3348262;42;20159;-57
2022/06/18 14:50:33;;;;;;;6.25;2.40;;;;;;;;;;3342386;42;20550;-59
2022/06/18 14:53:20;;;;;;;5.80;2.73;;;;;;;;;;3344890;42;20514;-58
2022/06/18 14:56:30;;;;;;;5.60;2.20;;;;;;;;;;3344540;42;20104;-59
2022/06/18 14:59:08;;;;;;;6.93;2.40;;;;;;;;;;3338741;42;20547;-59
2022/06/18 15:01:40;;;;;;;6.78;2.28;;;;;;;;;;3339940;42;20096;-58
2022/06/18 15:04:19;;;;;;;6.30;2.53;;;;;;;;;;3340605;42;20111;-58
2022/06/18 15:06:45;;;;;;;6.67;3.00;;;;;;;;;;3348583;42;20084;-58
2022/06/18 15:09:12;;;;;;;6.50;2.40;;;;;;;;;;3346250;42;20140;-58
2022/06/18 15:11:47;;;;;;;6.45;2.50;;;;;;;;;;3344085;42;20183;-58
2022/06/18 15:14:23;;;;;;;7.25;2.22;;;;;;;;;;3324400;42;20096;-58
2022/06/18 15:17:43;;;;;;;7.03;3.60;;;;;;;;;;3348432;42;20089;-59
2022/06/18 15:19:43;;;;;;;6.63;2.70;;;;;;;;;;3337829;42;20097;-60
2022/06/18 15:23:21;;;;;;;7.93;2.80;;;;;;;;;;3344008;42;20092;-61
2022/06/18 15:25:24;;;;;;;5.88;2.70;;;;;;;;;;3336262;42;20200;-60
2022/06/18 15:27:52;;;;;;;7.05;2.80;;;;;;;;;;3335379;42;20089;-58
2022/06/18 15:30:29;;;;;;;7.35;2.80;;;;;;;;;;3333511;42;20496;-59
2022/06/18 15:32:58;;;;;;;9.27;2.93;;;;;;;;;;3348420;42;20093;-59
2022/06/18 15:35:25;;;;;;;7.47;2.60;;;;;;;;;;3342995;42;20476;-58
2022/06/18 15:37:58;;;;;;;8.18;2.78;;;;;;;;;;3334800;42;20101;-60
2022/06/18 15:40:42;;;;;;;7.65;2.92;;;;;;;;;;3343380;42;20167;-59
2022/06/18 15:43:17;;;;;;;9.68;2.78;;;;;;;;;;3335640;42;20144;-59